Time;durP1;ratioP1;P1;durP2;ratioP2;P2;SDS_P1;SDS_P2;PMS_P1;PMS_P2;Temp;Humidity;BMP_temperature;BMP_pressure;BME280_temperature;BME280_humidity;BME280_pressure;Samples;Min_cycle;Max_cycle;Signal;HPM_P1;HPM_P2
2021/03/28 00:00:23;;;;;;;7.45;2.17;;;;;;;7.20;68.40;101841.03;5002191;28;20064;-68
2021/03/28 00:03:15;;;;;;;6.32;2.15;;;;;;;7.25;69.57;101846.97;5017286;28;20172;-68
2021/03/28 00:06:14;;;;;;;6.82;1.63;;;;;;;7.26;69.14;101838.06;5016196;28;20104;-69
2021/03/28 00:09:18;;;;;;;9.30;2.28;;;;;;;7.27;68.92;101838.94;5029849;28;20557;-69
2021/03/28 00:12:28;;;;;;;8.10;2.38;;;;;;;7.25;70.41;101836.34;5002194;28;20414;-68
2021/03/28 00:15:12;;;;;;;5.97;1.98;;;;;;;7.23;69.50;101832.94;5002418;28;20065;-67
2021/03/28 00:18:19;;;;;;;12.10;3.20;;;;;;;7.26;70.01;101835.41;5015983;28;20103;-68
2021/03/28 00:21:12;;;;;;;4.15;2.30;;;;;;;7.24;69.74;101834.66;5015795;28;20111;-69
2021/03/28 00:24:03;;;;;;;4.40;1.73;;;;;;;7.35;70.16;101837.56;5029901;28;20097;-69
2021/03/28 00:27:06;;;;;;;9.10;2.83;;;;;;;7.40;69.50;101839.94;5016514;28;20517;-69
2021/03/28 00:30:21;;;;;;;10.05;2.47;;;;;;;7.46;70.47;101837.81;5015748;28;20060;-69
2021/03/28 00:33:18;;;;;;;10.18;2.58;;;;;;;7.42;71.15;101838.06;5001795;28;20045;-69
2021/03/28 00:36:06;;;;;;;6.97;2.45;;;;;;;7.41;71.38;101831.91;5015907;28;20514;-68
2021/03/28 00:38:55;;;;;;;9.20;2.00;;;;;;;7.35;71.06;101832.25;5015610;28;20052;-69
2021/03/28 00:41:39;;;;;;;10.00;2.42;;;;;;;7.36;71.95;101831.31;5015261;28;20100;-69
2021/03/28 00:44:23;;;;;;;11.07;3.35;;;;;;;7.43;71.01;101830.03;5016251;28;20048;-69
2021/03/28 00:47:09;;;;;;;12.98;2.53;;;;;;;7.46;70.18;101823.66;5015427;28;20048;-69
2021/03/28 00:50:20;;;;;;;8.57;2.42;;;;;;;7.46;71.39;101827.19;5015691;28;20084;-69
2021/03/28 00:53:06;;;;;;;5.97;2.90;;;;;;;7.34;72.63;101833.19;5016182;28;20041;-68
2021/03/28 00:56:00;;;;;;;10.18;3.35;;;;;;;7.37;71.12;101830.34;5015044;28;20065;-67
2021/03/28 00:58:58;;;;;;;9.07;2.17;;;;;;;7.32;71.74;101837.75;5028292;28;20053;-68
2021/03/28 01:01:56;;;;;;;7.22;2.88;;;;;;;7.41;69.94;101836.34;5015020;28;20473;-67
2021/03/28 01:04:48;;;;;;;8.38;2.97;;;;;;;7.44;71.97;101836.16;5015973;28;20048;-66
2021/03/28 01:07:32;;;;;;;9.02;3.15;;;;;;;7.46;69.54;101835.16;5015527;28;20036;-67
2021/03/28 01:10:29;;;;;;;7.57;2.25;;;;;;;7.51;69.52;101822.47;5016660;28;20053;-69
2021/03/28 01:13:25;;;;;;;7.45;2.30;;;;;;;7.53;67.89;101825.03;5063904;22;20076;-69
2021/03/28 01:16:35;;;;;;;8.52;2.72;;;;;;;7.58;67.12;101821.19;5055478;28;20111;-69
2021/03/28 01:19:47;;;;;;;7.97;2.63;;;;;;;7.68;65.42;101819.69;5055306;28;20044;-69
2021/03/28 01:22:49;;;;;;;4.88;2.47;;;;;;;7.73;65.83;101813.19;5055259;28;20052;-69
2021/03/28 01:25:41;;;;;;;10.82;2.65;;;;;;;7.78;64.79;101810.25;5054535;28;20517;-69
2021/03/28 01:28:45;;;;;;;13.10;2.65;;;;;;;7.81;64.69;101810.94;5054508;28;20055;-69
2021/03/28 01:31:38;;;;;;;13.05;2.97;;;;;;;7.83;64.67;101811.69;5054692;28;20040;-70
2021/03/28 01:34:28;;;;;;;9.48;2.40;;;;;;;7.84;64.75;101809.91;5040206;28;20094;-69
2021/03/28 01:37:26;;;;;;;8.27;2.78;;;;;;;7.81;64.17;101804.75;5040142;28;20051;-70
2021/03/28 01:40:22;;;;;;;9.00;2.90;;;;;;;7.83;63.63;101802.91;5055286;28;20512;-69
2021/03/28 01:43:10;;;;;;;6.70;2.42;;;;;;;7.87;63.57;101804.41;5054159;28;20047;-69
2021/03/28 01:46:05;;;;;;;7.03;2.38;;;;;;;7.92;63.72;101815.59;5054993;28;20052;-69
2021/03/28 01:48:57;;;;;;;7.05;2.40;;;;;;;7.87;64.57;101812.38;5054097;28;20444;-69
2021/03/28 01:52:13;;;;;;;6.68;2.30;;;;;;;7.80;66.61;101813.69;5054024;28;20393;-69
2021/03/28 01:55:31;;;;;;;6.78;2.05;;;;;;;7.64;66.46;101807.56;5054722;28;20187;-70
2021/03/28 01:58:42;;;;;;;12.00;2.78;;;;;;;7.59;66.00;101809.63;5054905;28;20091;-70
2021/03/28 02:01:48;;;;;;;6.38;2.47;;;;;;;7.53;65.90;101807.34;5054589;28;20047;-70
2021/03/28 02:04:44;;;;;;;6.25;2.30;;;;;;;7.46;69.09;101797.13;5054463;28;20052;-70
2021/03/28 02:07:56;;;;;;;12.75;2.75;;;;;;;7.38;70.18;101800.22;5053775;28;20405;-70
2021/03/28 02:10:43;;;;;;;11.43;2.63;;;;;;;7.36;70.56;101801.25;5054390;28;20547;-70
2021/03/28 02:13:45;;;;;;;8.63;2.45;;;;;;;7.48;67.89;101800.56;5053222;28;20051;-70
2021/03/28 02:17:07;;;;;;;10.30;2.53;;;;;;;7.72;63.96;101800.03;5054291;28;20055;-69
2021/03/28 02:19:57;;;;;;;7.38;2.25;;;;;;;7.78;63.85;101799.66;5054524;28;20528;-70
2021/03/28 02:22:52;;;;;;;11.05;2.25;;;;;;;7.80;67.65;101800.41;5039215;28;20083;-69
2021/03/28 02:25:59;;;;;;;14.27;2.90;;;;;;;7.74;68.09;101798.13;5053687;28;20075;-70
2021/03/28 02:28:53;;;;;;;6.75;2.42;;;;;;;7.65;69.81;101802.16;5053321;28;20047;-68
2021/03/28 02:31:57;;;;;;;8.07;2.88;;;;;;;7.51;71.30;101801.22;5053124;28;20121;-68
2021/03/28 02:35:03;;;;;;;7.53;2.15;;;;;;;7.41;72.83;101810.69;5053948;28;20083;-69
2021/03/28 02:38:02;;;;;;;7.63;2.65;;;;;;;7.32;73.03;101827.13;5054285;28;20129;-69
2021/03/28 02:41:03;;;;;;;10.68;3.08;;;;;;;7.25;72.65;101832.84;5054100;28;20079;-69
2021/03/28 02:44:12;;;;;;;9.02;2.85;;;;;;;7.35;68.91;101824.28;5052747;28;20102;-69
2021/03/28 02:47:30;;;;;;;8.70;2.72;;;;;;;7.54;67.25;101817.00;5052916;28;20055;-69
2021/03/28 02:50:42;;;;;;;9.82;3.10;;;;;;;7.61;66.86;101823.66;5053963;28;20129;-69
2021/03/28 02:53:54;;;;;;;9.48;3.55;;;;;;;7.66;66.54;101818.94;5052687;28;20469;-69
2021/03/28 02:57:03;;;;;;;8.55;2.78;;;;;;;7.63;66.41;101819.13;5052568;28;20075;-69
2021/03/28 03:00:11;;;;;;;7.75;2.80;;;;;;;7.62;66.42;101818.25;5052781;28;20044;-69
2021/03/28 03:03:16;;;;;;;6.20;2.85;;;;;;;7.59;65.88;101815.78;5038485;28;20553;-69
2021/03/28 03:06:15;;;;;;;12.27;2.85;;;;;;;7.62;65.50;101814.78;5053406;28;20090;-69
2021/03/28 03:09:14;;;;;;;7.38;2.97;;;;;;;7.58;65.62;101813.22;5053620;28;20052;-69
2021/03/28 03:12:14;;;;;;;9.50;3.00;;;;;;;7.57;65.24;101817.69;5052106;28;20048;-69
2021/03/28 03:15:24;;;;;;;9.32;2.78;;;;;;;7.47;66.63;101826.25;5052276;28;20048;-69
2021/03/28 03:18:42;;;;;;;8.10;2.95;;;;;;;7.41;67.54;101837.22;5053474;28;20095;-69
2021/03/28 03:21:48;;;;;;;7.35;2.55;;;;;;;7.37;66.82;101829.53;5052723;28;20067;-70
2021/03/28 03:25:10;;;;;;;8.95;2.58;;;;;;;7.46;64.92;101816.56;5038541;28;20102;-69
2021/03/28 03:28:35;;;;;;;7.07;2.47;;;;;;;7.49;65.83;101829.66;5053382;28;20043;-70
2021/03/28 03:31:28;;;;;;;6.80;2.67;;;;;;;7.59;64.34;101825.53;5011727;28;20092;-69
2021/03/28 03:34:25;;;;;;;9.30;3.17;;;;;;;7.62;63.86;101826.22;5011661;28;20167;-69
2021/03/28 03:37:40;;;;;;;10.13;2.75;;;;;;;7.65;63.76;101830.50;5037867;28;20405;-69
2021/03/28 03:40:43;;;;;;;6.13;2.63;;;;;;;7.59;64.79;101825.53;5052235;28;20052;-68
2021/03/28 03:43:50;;;;;;;7.22;2.95;;;;;;;7.60;64.25;101821.94;5052906;28;20052;-69
2021/03/28 03:46:43;;;;;;;10.48;2.97;;;;;;;7.60;64.09;101830.78;5038106;28;20098;-69
2021/03/28 03:49:50;;;;;;;15.88;3.58;;;;;;;7.56;64.01;101831.03;5053189;28;20047;-69
2021/03/28 03:52:40;;;;;;;9.10;2.90;;;;;;;7.46;66.21;101824.53;5053099;28;20117;-69
2021/03/28 03:55:37;;;;;;;11.40;3.58;;;;;;;7.31;67.19;101830.72;5053153;28;20083;-69
2021/03/28 03:58:34;;;;;;;8.38;2.75;;;;;;;7.15;67.69;101829.84;5037970;28;20102;-69
2021/03/28 04:01:49;;;;;;;7.47;3.28;;;;;;;7.04;67.98;101824.28;5037649;28;20528;-69
2021/03/28 04:04:51;;;;;;;;;;;;;;;6.89;69.57;101832.22;5053235;28;20044;-69
2021/03/28 04:08:00;;;;;;;11.82;2.90;;;;;;;6.75;71.12;101829.47;5052730;28;19918;-69
2021/03/28 04:11:21;;;;;;;10.93;3.25;;;;;;;6.62;71.29;101821.31;5052722;28;20043;-69
2021/03/28 04:14:12;;;;;;;11.70;2.80;;;;;;;6.54;72.60;101825.28;5052415;28;20098;-68
2021/03/28 04:17:20;;;;;;;9.23;3.25;;;;;;;6.44;71.94;101827.59;5052937;28;20520;-69
2021/03/28 04:20:24;;;;;;;11.48;3.17;;;;;;;6.35;72.26;101830.72;5051929;28;20048;-69
2021/03/28 04:23:20;;;;;;;;;;;;;;;6.39;71.43;101834.94;5051933;28;20079;-69
2021/03/28 04:26:14;;;;;;;14.45;4.55;;;;;;;6.36;71.38;101831.59;5051646;28;19935;-69
2021/03/28 04:29:04;;;;;;;8.77;3.20;;;;;;;6.33;70.93;101837.03;5052783;28;20404;-70
2021/03/28 04:32:22;;;;;;;13.25;3.85;;;;;;;6.34;70.99;101847.53;5039272;28;20043;-69
2021/03/28 04:35:20;;;;;;;9.73;3.40;;;;;;;6.33;70.49;101844.97;5056223;28;20048;-70
2021/03/28 04:38:35;;;;;;;9.20;2.90;;;;;;;6.31;70.21;101845.06;5055415;28;20103;-70
2021/03/28 04:41:24;;;;;;;;;;;;;;;6.28;70.38;101845.19;5056848;28;20132;-69
2021/03/28 04:44:11;;;;;;;13.13;3.63;;;;;;;6.27;70.58;101840.84;5054964;28;19919;-69
2021/03/28 04:47:16;;;;;;;11.88;3.35;;;;;;;6.23;70.42;101851.66;5055332;28;20043;-69
2021/03/28 04:50:18;;;;;;;9.23;3.33;;;;;;;6.16;70.85;101859.06;5055984;28;20079;-69
2021/03/28 04:53:21;;;;;;;10.93;3.15;;;;;;;6.10;71.50;101854.13;5055840;28;20102;-69
2021/03/28 04:56:48;;;;;;;9.63;3.30;;;;;;;6.02;71.28;101861.56;5056198;28;20071;-69
2021/03/28 04:59:40;;;;;;;8.43;3.58;;;;;;;6.02;70.93;101866.00;5056030;28;20052;-69
2021/03/28 05:02:39;;;;;;;10.55;3.33;;;;;;;5.98;71.88;101872.41;5054940;28;20048;-69
2021/03/28 05:05:26;;;;;;;8.75;3.30;;;;;;;5.98;70.93;101882.97;5056272;28;20504;-69
2021/03/28 05:08:20;;;;;;;11.18;3.35;;;;;;;5.93;71.74;101880.56;5055900;28;20052;-69
2021/03/28 05:11:32;;;;;;;11.77;3.60;;;;;;;5.92;71.48;101889.44;5055155;28;20055;-69
2021/03/28 05:14:25;;;;;;;8.05;3.25;;;;;;;5.90;71.83;101878.09;5055805;28;20040;-70
2021/03/28 05:17:40;;;;;;;14.35;4.22;;;;;;;5.86;73.22;101873.00;5055458;28;20044;-69
2021/03/28 05:20:43;;;;;;;;;;;;;;;5.81;72.97;101873.25;5054853;28;20052;-68
2021/03/28 05:23:48;;;;;;;9.73;3.10;;;;;;;5.71;73.66;101879.88;5055396;28;19924;-69
2021/03/28 05:26:38;;;;;;;6.75;3.20;;;;;;;5.62;73.89;101880.31;5054299;28;20566;-69
2021/03/28 05:29:57;;;;;;;12.10;3.85;;;;;;;5.59;73.56;101875.19;5055219;28;20047;-68
2021/03/28 05:33:19;;;;;;;13.30;3.33;;;;;;;5.55;73.84;101881.53;5054160;28;20416;-70
2021/03/28 05:36:15;;;;;;;8.10;2.88;;;;;;;5.53;73.92;101883.41;5054180;28;20132;-69
2021/03/28 05:39:07;;;;;;;9.77;3.38;;;;;;;5.52;74.40;101884.34;5054993;28;20055;-69
2021/03/28 05:42:27;;;;;;;9.45;3.42;;;;;;;5.47;74.90;101886.38;5055228;28;20110;-69
2021/03/28 05:45:23;;;;;;;10.55;3.38;;;;;;;5.43;76.38;101898.00;5054971;28;20047;-69
2021/03/28 05:48:33;;;;;;;6.55;3.08;;;;;;;5.41;74.95;101891.94;5055202;28;20102;-69
2021/03/28 05:51:41;;;;;;;8.90;3.50;;;;;;;5.43;75.41;101878.66;5053841;28;20051;-69
2021/03/28 05:54:41;;;;;;;9.93;3.75;;;;;;;5.41;77.14;101876.06;5054869;28;20417;-69
2021/03/28 05:57:59;;;;;;;7.05;3.60;;;;;;;5.32;78.11;101881.78;5054633;28;20086;-69
2021/03/28 06:01:12;;;;;;;5.53;3.20;;;;;;;5.31;77.77;101885.38;5054950;28;20087;-69
2021/03/28 06:04:26;;;;;;;8.88;3.50;;;;;;;5.38;77.61;101886.78;5039496;28;20044;-70
2021/03/28 06:07:34;;;;;;;8.23;3.38;;;;;;;5.43;77.98;101908.59;5053881;28;20044;-70
2021/03/28 06:10:31;;;;;;;9.32;3.63;;;;;;;5.53;77.28;101917.81;5054635;28;20421;-69
2021/03/28 06:13:42;;;;;;;12.10;4.53;;;;;;;5.61;77.05;101914.78;5054227;28;20531;-69
2021/03/28 06:16:36;;;;;;;10.90;4.05;;;;;;;5.69;76.89;101913.50;5054640;28;20048;-69
2021/03/28 06:19:38;;;;;;;8.77;3.40;;;;;;;5.76;75.27;101925.47;5053328;28;20513;-69
2021/03/28 06:22:55;;;;;;;8.20;3.45;;;;;;;5.86;75.20;101937.38;5053470;28;20261;-69
2021/03/28 06:26:04;;;;;;;9.27;3.90;;;;;;;5.96;73.82;101937.81;5053204;28;20143;-69
2021/03/28 06:29:03;;;;;;;9.65;3.53;;;;;;;6.11;73.73;101939.69;5054138;28;20114;-69
2021/03/28 06:32:06;;;;;;;8.85;4.22;;;;;;;6.20;72.72;101926.84;5053518;28;20068;-70
2021/03/28 06:35:27;;;;;;;7.63;4.15;;;;;;;6.31;71.58;101940.41;5052996;28;20139;-69
2021/03/28 06:38:20;;;;;;;10.13;3.65;;;;;;;6.44;71.66;101938.84;5052873;28;20053;-69
2021/03/28 06:41:24;;;;;;;7.75;3.55;;;;;;;6.52;71.08;101936.69;5052909;28;20102;-68
2021/03/28 06:44:29;;;;;;;7.13;3.47;;;;;;;6.58;70.86;101939.00;5053062;28;20047;-69
2021/03/28 06:47:25;;;;;;;8.77;3.50;;;;;;;6.67;70.18;101938.53;5053762;28;20047;-69
2021/03/28 06:50:37;;;;;;;7.10;4.00;;;;;;;6.82;71.20;101928.91;5054055;28;20059;-69
2021/03/28 06:53:21;;;;;;;7.82;3.47;;;;;;;6.95;70.52;101930.84;5052932;28;20044;-70
2021/03/28 06:56:49;;;;;;;7.20;4.60;;;;;;;7.03;69.37;101936.59;5053038;28;20563;-69
2021/03/28 06:59:42;;;;;;;7.65;3.10;;;;;;;7.08;68.74;101944.31;5053689;28;20098;-69
2021/03/28 07:02:55;;;;;;;9.88;3.10;;;;;;;7.21;67.41;101945.38;5053583;28;20094;-69
2021/03/28 07:06:03;;;;;;;9.80;3.40;;;;;;;7.32;67.33;101954.47;5053457;28;20101;-69
2021/03/28 07:09:06;;;;;;;11.45;3.47;;;;;;;7.39;66.48;101953.19;5052395;28;20102;-69
2021/03/28 07:12:17;;;;;;;9.02;3.70;;;;;;;7.47;66.89;101964.22;5052090;28;20048;-69
2021/03/28 07:15:30;;;;;;;10.90;3.55;;;;;;;7.54;65.99;101966.47;5107624;22;20524;-69
2021/03/28 07:18:33;;;;;;;8.95;3.67;;;;;;;7.66;65.66;101976.44;5092872;28;20039;-69
2021/03/28 07:21:55;;;;;;;7.65;3.22;;;;;;;7.85;64.52;101970.94;5093486;28;20062;-68
2021/03/28 07:24:58;;;;;;;7.70;3.22;;;;;;;8.05;64.40;101990.09;5078624;28;20075;-69
2021/03/28 07:27:56;;;;;;;7.28;3.65;;;;;;;7.97;62.87;101987.06;5073226;28;20051;-69
2021/03/28 07:31:05;;;;;;;5.55;2.28;;;;;;;7.96;62.90;101984.47;5072147;28;20067;-69
2021/03/28 07:34:26;;;;;;;8.88;3.35;;;;;;;7.95;63.27;101972.13;5072780;28;20362;-68
2021/03/28 07:37:28;;;;;;;9.85;3.60;;;;;;;7.89;63.41;101989.28;5071599;28;20109;-67
2021/03/28 07:40:30;;;;;;;12.20;4.13;;;;;;;7.85;63.93;101992.19;5072506;28;20524;-68
2021/03/28 07:43:27;;;;;;;9.07;4.00;;;;;;;7.93;64.19;101982.00;5071427;28;20069;-68
2021/03/28 07:46:48;;;;;;;15.75;6.20;;;;;;;8.09;64.01;101982.81;5071618;28;20075;-69
2021/03/28 07:50:17;;;;;;;8.73;3.80;;;;;;;8.17;63.15;101977.94;5071646;28;20101;-66
2021/03/28 07:53:39;;;;;;;11.40;4.03;;;;;;;8.25;64.39;101986.34;5071243;28;20051;-69
2021/03/28 07:56:32;;;;;;;10.60;3.63;;;;;;;8.34;62.63;101989.34;5071719;28;20063;-69
2021/03/28 07:59:19;;;;;;;9.98;3.50;;;;;;;8.48;63.19;101983.22;5071144;28;20512;-69
2021/03/28 08:02:20;;;;;;;9.57;4.00;;;;;;;8.72;63.13;102001.25;5072515;28;20093;-69
2021/03/28 08:05:26;;;;;;;8.07;3.47;;;;;;;8.88;61.36;101996.72;5057614;28;20051;-69
2021/03/28 08:08:48;;;;;;;10.75;3.75;;;;;;;9.02;60.33;101995.88;5076884;28;20137;-69
2021/03/28 08:11:41;;;;;;;10.52;4.03;;;;;;;9.18;59.94;102002.84;5075793;28;20059;-69
2021/03/28 08:14:39;;;;;;;7.30;3.55;;;;;;;9.21;58.22;102000.00;5076079;28;20089;-66
2021/03/28 08:17:37;;;;;;;5.33;2.57;;;;;;;9.30;58.05;102003.91;5076508;28;20051;-69
2021/03/28 08:20:32;;;;;;;8.05;3.22;;;;;;;9.23;57.69;102015.84;5061534;28;20105;-69
2021/03/28 08:23:35;;;;;;;8.60;3.28;;;;;;;9.47;58.82;102001.06;5074933;28;20052;-69
2021/03/28 08:26:28;;;;;;;13.20;3.78;;;;;;;9.50;57.67;101998.19;5075879;28;20047;-69
2021/03/28 08:29:44;;;;;;;9.63;3.80;;;;;;;9.77;57.66;101997.31;5074944;28;20047;-69
2021/03/28 08:32:37;;;;;;;11.02;3.63;;;;;;;9.86;56.55;102009.16;5075717;28;20473;-69
2021/03/28 08:35:27;;;;;;;7.88;3.38;;;;;;;9.87;56.54;102002.91;5075562;28;20160;-69
2021/03/28 08:38:41;;;;;;;8.50;3.28;;;;;;;9.91;56.09;102010.59;5075874;28;20060;-68
2021/03/28 08:41:46;;;;;;;11.02;3.35;;;;;;;9.93;56.25;101994.50;5075451;28;20051;-68
2021/03/28 08:44:46;;;;;;;10.40;3.85;;;;;;;10.02;54.67;101996.59;5075970;28;20269;-68
2021/03/28 08:48:23;;;;;;;7.40;3.33;;;;;;;10.06;55.57;101983.00;5074453;28;20090;-68
2021/03/28 08:51:16;;;;;;;9.95;3.70;;;;;;;10.32;56.21;101984.78;5033355;28;20119;-68
2021/03/28 08:54:12;;;;;;;10.38;3.70;;;;;;;10.40;55.70;101978.03;5033408;28;20056;-68
2021/03/28 08:57:03;;;;;;;7.15;3.53;;;;;;;10.68;55.98;101982.34;5087430;28;20075;-67
2021/03/28 09:00:05;;;;;;;11.10;3.13;;;;;;;10.72;54.79;101978.50;5074308;28;20062;-68
2021/03/28 09:03:43;;;;;;;8.07;3.75;;;;;;;10.90;54.57;101983.47;5075422;28;20546;-68
2021/03/28 09:06:29;;;;;;;7.55;3.47;;;;;;;10.98;53.45;101977.59;5075332;28;20044;-67
2021/03/28 09:09:31;;;;;;;6.20;2.97;;;;;;;11.27;54.42;101976.44;5074038;28;20043;-68
2021/03/28 09:12:53;;;;;;;10.55;3.88;;;;;;;11.44;53.96;101973.41;5074232;28;20052;-68
2021/03/28 09:15:55;;;;;;;6.22;3.38;;;;;;;11.54;53.70;101979.81;5073847;28;20508;-67
2021/03/28 09:18:47;;;;;;;8.00;3.08;;;;;;;11.78;53.05;101975.41;5073053;28;20048;-68
2021/03/28 09:21:51;;;;;;;8.25;3.65;;;;;;;11.87;51.99;101978.28;5074097;28;20047;-68
2021/03/28 09:24:45;;;;;;;8.30;3.50;;;;;;;11.87;51.92;101972.94;5074739;28;20055;-68
2021/03/28 09:27:42;;;;;;;6.88;3.15;;;;;;;12.07;51.46;101969.66;5059738;28;20035;-67
2021/03/28 09:30:33;;;;;;;8.35;3.10;;;;;;;12.44;50.60;101967.75;5074670;28;20047;-67
2021/03/28 09:33:38;;;;;;;8.75;3.10;;;;;;;12.50;50.32;101960.13;5059560;28;20039;-68
2021/03/28 09:36:46;;;;;;;9.07;2.55;;;;;;;12.72;48.96;101962.88;5073751;28;20048;-68
2021/03/28 09:39:30;;;;;;;8.82;2.65;;;;;;;13.20;46.77;101961.78;5073595;28;20496;-68
2021/03/28 09:42:47;;;;;;;7.28;2.75;;;;;;;13.50;47.54;101962.91;5074431;28;20164;-68
2021/03/28 09:45:49;;;;;;;7.55;2.80;;;;;;;14.26;45.04;101952.22;5074638;28;20101;-68
2021/03/28 09:48:40;;;;;;;7.10;2.30;;;;;;;14.87;44.39;101952.25;5073514;28;20558;-68
2021/03/28 09:51:52;;;;;;;6.22;2.85;;;;;;;16.10;40.96;101958.22;5073624;28;20066;-68
2021/03/28 09:54:45;;;;;;;10.55;2.85;;;;;;;16.78;38.88;101960.81;5059024;28;20062;-69
2021/03/28 09:58:07;;;;;;;6.07;2.15;;;;;;;17.38;37.73;101946.09;5073471;28;20089;-68
2021/03/28 10:00:57;;;;;;;4.65;2.70;;;;;;;17.37;36.74;101944.38;5073237;28;20141;-68
2021/03/28 10:04:06;;;;;;;9.73;3.13;;;;;;;17.91;34.36;101942.56;5058975;28;20047;-68
2021/03/28 10:06:58;;;;;;;5.60;2.58;;;;;;;19.27;32.92;101933.03;5073938;28;20562;-68
2021/03/28 10:09:57;;;;;;;7.63;2.42;;;;;;;19.84;32.74;101921.44;5059107;28;20127;-68
2021/03/28 10:13:04;;;;;;;8.90;2.08;;;;;;;19.57;32.67;101919.84;5072946;28;20051;-68
2021/03/28 10:16:11;;;;;;;10.60;2.78;;;;;;;19.95;31.69;101919.31;5074090;28;20161;-68
2021/03/28 10:19:14;;;;;;;5.68;2.20;;;;;;;19.10;31.99;101931.19;5058311;28;20640;-68
2021/03/28 10:22:04;;;;;;;6.43;2.25;;;;;;;18.24;33.69;101924.88;5073725;28;20416;-68
2021/03/28 10:25:13;;;;;;;7.07;2.53;;;;;;;18.34;33.52;101918.41;5073707;28;20410;-68
2021/03/28 10:28:15;;;;;;;5.82;1.83;;;;;;;19.98;31.20;101896.44;5073534;28;20087;-68
2021/03/28 10:31:11;;;;;;;4.18;1.80;;;;;;;18.99;32.32;101912.53;5073526;28;20503;-68
2021/03/28 10:34:48;;;;;;;3.03;1.52;;;;;;;19.90;30.62;101899.16;5058633;28;20531;-68
2021/03/28 10:38:03;;;;;;;7.38;2.20;;;;;;;20.58;30.21;101912.31;5060752;28;20097;-68
2021/03/28 10:40:59;;;;;;;7.47;2.13;;;;;;;20.31;30.91;101898.25;5073521;28;20393;-68
2021/03/28 10:44:09;;;;;;;10.27;2.42;;;;;;;19.12;31.84;101902.16;5058002;28;20177;-67
2021/03/28 10:47:16;;;;;;;4.68;2.63;;;;;;;20.86;29.95;101886.59;5058345;28;20127;-68
2021/03/28 10:50:21;;;;;;;7.50;2.88;;;;;;;21.46;27.78;101888.63;5057942;28;20048;-68
2021/03/28 10:53:36;;;;;;;6.55;2.08;;;;;;;20.29;29.96;101884.88;5072047;28;20131;-67
2021/03/28 10:56:23;;;;;;;;;;;;;;;22.21;26.70;101881.63;5073710;28;20503;-68
2021/03/28 10:59:38;;;;;;;7.28;2.33;;;;;;;19.74;30.10;101899.09;5073426;28;19922;-67
2021/03/28 11:02:41;;;;;;;6.80;2.33;;;;;;;19.44;30.13;101903.22;5072186;28;20135;-67
2021/03/28 11:05:38;;;;;;;7.05;2.42;;;;;;;21.63;27.60;101884.81;5073051;28;20043;-67
2021/03/28 11:08:38;;;;;;;5.25;2.10;;;;;;;22.04;28.40;101878.16;5057616;28;20523;-68
2021/03/28 11:11:41;;;;;;;4.40;2.10;;;;;;;20.84;28.95;101887.72;5072986;28;20149;-68
2021/03/28 11:14:34;;;;;;;7.32;2.60;;;;;;;21.82;27.14;101875.41;5072639;28;20082;-68
2021/03/28 11:17:21;;;;;;;6.80;2.60;;;;;;;20.70;28.62;101874.84;5072894;28;20051;-68
2021/03/28 11:20:36;;;;;;;6.03;2.03;;;;;;;19.06;30.47;101870.34;5071928;28;20055;-68
2021/03/28 11:23:38;;;;;;;4.95;2.33;;;;;;;19.56;30.29;101853.22;5071911;28;20070;-68
2021/03/28 11:26:48;;;;;;;9.63;2.40;;;;;;;21.19;27.98;101856.47;5071854;28;20085;-66
2021/03/28 11:29:42;;;;;;;5.93;2.35;;;;;;;21.66;26.87;101851.06;5072896;28;20563;-68
2021/03/28 11:32:56;;;;;;;6.35;2.28;;;;;;;22.41;26.51;101842.91;5057733;28;20420;-67
2021/03/28 11:35:45;;;;;;;7.40;2.63;;;;;;;22.23;26.45;101839.66;5057879;28;20044;-68
2021/03/28 11:38:37;;;;;;;8.85;2.70;;;;;;;21.79;26.79;101835.88;5071644;28;20049;-68
2021/03/28 11:41:20;;;;;;;5.90;1.90;;;;;;;20.49;28.42;101842.88;5070937;28;20109;-68
2021/03/28 11:44:16;;;;;;;4.05;1.90;;;;;;;19.94;28.71;101846.38;5072396;28;20071;-68
2021/03/28 11:47:20;;;;;;;5.78;2.03;;;;;;;20.07;29.58;101836.78;5071735;28;20048;-68
2021/03/28 11:50:28;;;;;;;4.63;2.20;;;;;;;22.70;26.26;101843.00;5071485;28;20051;-68
2021/03/28 11:53:24;;;;;;;5.88;1.90;;;;;;;23.18;24.63;101837.06;5071535;28;20260;-68
2021/03/28 11:56:56;;;;;;;2.95;1.70;;;;;;;21.19;26.52;101845.63;5072614;28;20165;-68
2021/03/28 11:59:44;;;;;;;3.80;1.80;;;;;;;22.83;24.66;101823.34;5068430;28;20046;-69
2021/03/28 12:02:29;;;;;;;5.65;1.77;;;;;;;23.02;24.61;101830.94;5071565;28;20109;-68
2021/03/28 12:05:13;;;;;;;4.32;1.75;;;;;;;24.31;22.84;101820.81;5071185;28;20112;-68
2021/03/28 12:08:07;;;;;;;5.00;1.98;;;;;;;26.57;21.43;101803.84;5071439;28;20079;-68
2021/03/28 12:10:51;;;;;;;7.85;2.35;;;;;;;23.59;23.26;101813.75;5071382;28;20054;-68
2021/03/28 12:13:45;;;;;;;4.97;1.83;;;;;;;22.29;24.11;101800.88;5072070;28;20627;-68
2021/03/28 12:17:02;;;;;;;9.88;2.20;;;;;;;22.30;25.14;101799.03;5071136;28;20518;-68
2021/03/28 12:19:49;;;;;;;6.07;2.15;;;;;;;22.53;24.57;101799.84;5072059;28;20043;-68
2021/03/28 12:22:45;;;;;;;7.63;2.35;;;;;;;24.09;23.12;101805.53;5072262;28;20056;-68
2021/03/28 12:25:34;;;;;;;5.72;2.30;;;;;;;24.72;22.48;101784.47;5071249;28;20381;-68
2021/03/28 12:28:25;;;;;;;7.32;2.33;;;;;;;23.57;23.72;101783.16;5072270;28;20046;-68
2021/03/28 12:31:27;;;;;;;5.38;1.80;;;;;;;22.69;24.91;101807.81;5071995;28;20040;-67
2021/03/28 12:34:27;;;;;;;6.30;2.05;;;;;;;22.66;24.64;101792.75;5071317;28;20102;-68
2021/03/28 12:37:11;;;;;;;4.85;2.38;;;;;;;24.19;22.35;101786.97;5071155;28;20413;-68
2021/03/28 12:39:54;;;;;;;5.03;1.63;;;;;;;22.40;23.86;101814.06;5071859;28;20094;-67
2021/03/28 12:42:38;;;;;;;5.18;1.80;;;;;;;21.44;25.41;101792.97;5071855;28;20090;-68
2021/03/28 12:45:25;;;;;;;5.85;1.88;;;;;;;21.03;26.23;101787.06;5071298;28;20055;-67
2021/03/28 12:48:20;;;;;;;6.43;2.30;;;;;;;22.65;24.94;101784.75;5072001;28;20066;-67
2021/03/28 12:51:05;;;;;;;;;;;;;;;22.42;24.69;101765.78;5056978;28;20048;-67
2021/03/28 12:53:49;;;;;;;5.07;1.83;;;;;;;21.91;25.74;101763.84;5072462;28;20280;-68
2021/03/28 12:56:35;;;;;;;2.58;1.35;;;;;;;20.45;26.50;101772.94;5074362;28;20066;-68
2021/03/28 12:59:31;;;;;;;5.05;1.80;;;;;;;21.73;25.42;101755.16;5074307;28;20052;-68
2021/03/28 13:02:18;;;;;;;4.85;1.70;;;;;;;23.44;24.15;101733.97;5075347;28;20051;-68
2021/03/28 13:05:07;;;;;;;6.07;2.17;;;;;;;22.30;24.48;101748.22;5075008;28;20515;-68
2021/03/28 13:07:56;;;;;;;4.28;1.70;;;;;;;21.61;26.18;101737.56;5060240;28;20113;-68
2021/03/28 13:10:41;;;;;;;6.50;2.00;;;;;;;21.89;26.13;101733.31;5075282;28;20472;-68
2021/03/28 13:13:26;;;;;;;9.05;2.10;;;;;;;20.60;26.93;101739.56;5073636;28;20547;-68
2021/03/28 13:16:22;;;;;;;4.05;1.80;;;;;;;20.68;26.09;101747.66;5074195;28;20048;-68
2021/03/28 13:19:06;;;;;;;3.97;1.70;;;;;;;20.66;27.03;101725.31;5073980;28;20047;-68
2021/03/28 13:21:56;;;;;;;7.07;1.90;;;;;;;21.96;26.22;101718.00;5059905;28;20102;-68
2021/03/28 13:24:40;;;;;;;3.88;1.67;;;;;;;20.32;27.55;101729.28;5073704;28;20137;-68
2021/03/28 13:27:24;;;;;;;6.90;2.05;;;;;;;21.72;26.05;101720.91;5073991;28;20497;-66
2021/03/28 13:30:14;;;;;;;;;;;;;;;21.70;25.53;101722.94;5060514;28;20047;-68
2021/03/28 13:32:59;;;;;;;5.32;1.90;;;;;;;21.45;25.54;101715.97;5072976;22;19959;-65
2021/03/28 13:35:43;;;;;;;4.85;2.30;;;;;;;20.80;26.95;101716.44;5088201;28;20051;-65
2021/03/28 13:38:26;;;;;;;7.57;2.20;;;;;;;20.82;27.45;101708.16;5074946;28;20044;-65
2021/03/28 13:41:26;;;;;;;8.15;2.47;;;;;;;20.21;26.71;101724.22;5074991;28;20075;-65
2021/03/28 13:44:16;;;;;;;6.20;2.03;;;;;;;19.41;28.31;101713.34;5073406;28;20248;-65
2021/03/28 13:47:04;;;;;;;5.20;2.03;;;;;;;19.87;28.45;101705.44;5074808;28;20051;-65
2021/03/28 13:49:52;;;;;;;5.18;1.90;;;;;;;19.60;28.71;101710.34;5073469;28;20094;-66
2021/03/28 13:52:41;;;;;;;8.25;1.75;;;;;;;20.45;27.21;101689.81;5074380;28;20566;-65
2021/03/28 13:55:39;;;;;;;6.32;2.05;;;;;;;21.07;27.37;101691.63;5073436;28;20362;-65
2021/03/28 13:58:46;;;;;;;5.90;2.50;;;;;;;19.48;28.10;101717.91;5073400;28;20477;-65
2021/03/28 14:01:44;;;;;;;6.13;2.08;;;;;;;19.97;28.20;101705.25;5074190;28;20067;-65
2021/03/28 14:04:44;;;;;;;6.47;2.13;;;;;;;21.71;25.90;101696.66;5072615;28;20565;-66